createdAt,value
2023-04-03T00:05:55.770Z,0.50
2023-04-03T00:13:47.691Z,0.60
2023-04-03T00:21:39.671Z,0.60
2023-04-03T00:29:31.463Z,0.50
2023-04-03T00:37:23.278Z,0.43
2023-04-03T00:45:20.859Z,0.50
2023-04-03T00:53:19.089Z,0.60
2023-04-03T01:01:16.334Z,0.60
2023-04-03T01:09:08.616Z,0.50
2023-04-03T01:17:00.416Z,0.50
2023-04-03T01:24:54.192Z,0.50
2023-04-03T01:32:45.963Z,0.50
2023-04-03T01:40:38.401Z,0.50
2023-04-03T01:48:30.264Z,0.60
2023-04-03T01:56:22.111Z,0.80
2023-04-03T02:04:14.136Z,0.50
2023-04-03T02:12:06.345Z,0.60
2023-04-03T02:19:58.079Z,0.55
2023-04-03T02:27:49.850Z,0.65
2023-04-03T02:35:41.589Z,0.70
2023-04-03T02:43:33.454Z,0.60
2023-04-03T02:51:25.574Z,0.70
2023-04-03T02:59:17.417Z,0.60
2023-04-03T03:07:09.200Z,0.60
2023-04-03T03:15:00.992Z,0.60
2023-04-03T03:22:52.743Z,0.70
2023-04-03T03:30:44.826Z,0.70
2023-04-03T03:38:36.610Z,0.60
2023-04-03T03:46:28.410Z,0.70
2023-04-03T03:54:20.306Z,0.60
2023-04-03T04:02:12.373Z,0.60
2023-04-03T04:10:05.149Z,0.60
2023-04-03T04:17:57.962Z,0.70
2023-04-03T04:25:50.169Z,0.93
2023-04-03T04:33:41.924Z,0.60
2023-04-03T04:41:34.314Z,0.80
2023-04-03T04:49:26.019Z,1.13
2023-04-03T04:57:18.218Z,0.65
2023-04-03T05:13:01.998Z,0.70
2023-04-03T05:20:53.901Z,0.60
2023-04-03T05:28:45.855Z,1.10
2023-04-03T05:36:37.570Z,0.60
2023-04-03T05:44:29.350Z,0.60
2023-04-03T05:52:22.451Z,0.70
2023-04-03T06:00:16.548Z,0.60
2023-04-03T06:08:09.930Z,0.60
2023-04-03T06:16:01.952Z,0.70
2023-04-03T06:23:53.725Z,0.52
2023-04-03T06:31:45.692Z,0.50
2023-04-03T06:39:37.468Z,0.50
2023-04-03T06:47:29.272Z,0.50
2023-04-03T06:55:21.474Z,0.50
2023-04-03T07:03:13.187Z,0.50
2023-04-03T07:11:05.844Z,0.40
2023-04-03T07:18:58.270Z,0.45
2023-04-03T07:26:51.910Z,0.50
2023-04-03T07:34:43.658Z,0.50
2023-04-03T07:42:35.997Z,0.40
2023-04-03T07:50:28.212Z,0.40
2023-04-03T07:58:19.970Z,0.30
2023-04-03T08:06:15.875Z,0.30
2023-04-03T08:14:08.354Z,0.30
2023-04-03T08:22:01.720Z,0.40
2023-04-03T08:29:53.469Z,0.20
2023-04-03T08:37:45.266Z,0.30
2023-04-03T08:45:46.329Z,0.40
2023-04-03T08:53:43.323Z,0.60
2023-04-03T09:01:41.956Z,0.30
2023-04-03T09:09:42.264Z,0.40
2023-04-03T09:17:37.432Z,0.30
2023-04-03T09:25:36.922Z,0.30
2023-04-03T09:33:31.055Z,0.30
2023-04-03T09:41:23.472Z,0.30
2023-04-03T09:49:16.462Z,0.20
2023-04-03T09:57:14.180Z,0.20
2023-04-03T10:05:29.076Z,0.20
2023-04-03T10:13:22.229Z,0.30
2023-04-03T10:21:27.672Z,0.20
2023-04-03T10:29:37.568Z,0.20
2023-04-03T10:37:49.156Z,0.20
2023-04-03T10:45:46.843Z,0.30
2023-04-03T10:53:44.263Z,0.38
2023-04-03T11:01:41.439Z,0.30
2023-04-03T11:09:38.943Z,0.60
2023-04-03T11:17:47.419Z,0.30
2023-04-03T11:25:44.244Z,0.35
2023-04-03T11:34:05.248Z,0.40
2023-04-03T11:42:34.134Z,0.30
2023-04-03T11:50:34.972Z,0.17
2023-04-03T11:58:31.056Z,0.20
2023-04-03T12:06:50.271Z,0.20
2023-04-03T12:14:42.309Z,0.22
2023-04-03T12:22:34.063Z,0.30
2023-04-03T12:30:31.162Z,0.32
2023-04-03T12:38:26.297Z,0.30
2023-04-03T12:46:23.881Z,0.30
2023-04-03T12:54:32.681Z,0.28
2023-04-03T13:02:30.937Z,0.30
2023-04-03T13:10:22.820Z,0.20
2023-04-03T13:18:35.786Z,0.30
2023-04-03T13:26:31.158Z,0.30
2023-04-03T13:34:26.918Z,0.20
2023-04-03T13:42:25.645Z,0.30
2023-04-03T13:50:23.583Z,0.30
2023-04-03T13:58:15.234Z,0.20
2023-04-03T14:06:09.256Z,0.25
2023-04-03T14:14:27.620Z,0.30
2023-04-03T14:22:23.203Z,0.47
2023-04-03T14:30:19.959Z,0.30
2023-04-03T14:38:30.522Z,0.30
2023-04-03T14:46:54.512Z,0.40
2023-04-03T14:54:49.172Z,0.35
2023-04-03T15:02:41.385Z,0.40
2023-04-03T15:10:33.931Z,0.40
2023-04-03T15:18:30.362Z,0.35
2023-04-03T15:26:22.828Z,0.60
2023-04-03T15:34:14.674Z,0.40
2023-04-03T15:42:09.746Z,0.32
2023-04-03T15:50:01.738Z,0.45
2023-04-03T15:57:54.326Z,0.40
2023-04-03T16:05:46.349Z,0.30
2023-04-03T16:13:38.315Z,0.30
2023-04-03T16:21:30.581Z,0.40
2023-04-03T16:29:22.378Z,0.40
2023-04-03T16:37:14.244Z,0.50
2023-04-03T16:45:07.714Z,0.40
2023-04-03T16:52:59.640Z,0.40
2023-04-03T17:00:51.827Z,0.40
2023-04-03T17:08:46.049Z,0.40
2023-04-03T17:16:38.524Z,0.40
2023-04-03T17:24:30.414Z,0.50
2023-04-03T17:32:22.574Z,0.50
2023-04-03T17:40:15.046Z,0.40
2023-04-03T17:48:06.838Z,0.50
2023-04-03T17:55:58.686Z,0.50
2023-04-03T18:03:54.265Z,0.40
2023-04-03T18:11:47.243Z,0.50
2023-04-03T18:19:39.233Z,0.50
2023-04-03T18:27:31.312Z,0.70
2023-04-03T18:35:23.164Z,0.50
2023-04-03T18:43:15.404Z,0.40
2023-04-03T18:51:10.291Z,0.50
2023-04-03T18:59:02.690Z,0.60
2023-04-03T19:06:54.701Z,0.40
2023-04-03T19:14:46.402Z,0.50
2023-04-03T19:22:38.537Z,0.50
2023-04-03T19:30:31.730Z,0.50
2023-04-03T19:38:23.497Z,0.50
2023-04-03T19:46:15.314Z,0.50
2023-04-03T19:54:07.101Z,0.50
2023-04-03T20:01:59.607Z,0.50
2023-04-03T20:09:51.419Z,0.50
2023-04-03T20:17:43.510Z,0.60
2023-04-03T20:25:50.721Z,0.52
2023-04-03T20:33:47.725Z,0.50
2023-04-03T20:41:39.688Z,0.57
2023-04-03T20:49:31.702Z,0.60
2023-04-03T20:57:23.434Z,0.50
2023-04-03T21:05:16.417Z,0.57
2023-04-03T21:13:46.988Z,0.60
2023-04-03T21:21:39.582Z,0.50
2023-04-03T21:29:31.275Z,0.57
2023-04-03T21:37:23.809Z,0.60
2023-04-03T21:45:16.418Z,0.60
2023-04-03T21:53:08.146Z,0.80
2023-04-03T22:01:13.853Z,0.60
2023-04-03T22:09:05.745Z,0.60
2023-04-03T22:16:58.158Z,0.55
2023-04-03T22:24:50.267Z,0.60
2023-04-03T22:32:42.025Z,0.60
2023-04-03T22:40:33.745Z,0.60
2023-04-03T22:48:25.647Z,0.60
2023-04-03T22:56:17.393Z,0.60
2023-04-03T23:04:09.135Z,0.60
2023-04-03T23:12:01.526Z,0.60
2023-04-03T23:19:53.586Z,0.60
2023-04-03T23:27:54.768Z,0.60
2023-04-03T23:35:48.478Z,0.57
2023-04-03T23:43:41.465Z,0.60
2023-04-03T23:51:33.151Z,0.60
2023-04-03T23:59:24.885Z,0.60
